Terminal Aerodrome Forecast
Issued by NWS

Home | Current Version | Previous Version | Text Only | Print | Product List | Glossary On
Versions: 1 2 3 4 5 6 7 8 9 10 11 12
912
FTUS44 KJAN 090520
TAFHKS
TAF
KHKS 090520Z 0906/1006 28005KT P6SM SKC
     FM091300 30012G18KT P6SM SCT050
     FM091800 30016G23KT P6SM OVC050
     FM100000 32004KT P6SM SKC=

USA.gov is the U.S. government's official web portal to all federal, state and local government web resources and services.